Time,TemperatureF,DewpointF,PressureIn,WindDirection,WindDirectionDegrees,WindSpeedMPH,WindSpeedGustMPH,Humidity,HourlyPrecipIn,Conditions,Clouds,dailyrainin,SoftwareType,DateUTC
2013-03-12 00:00:00,46.9,41.1,30.20,SSE,153,0.0,0.0,80,0.00,,,0.00,VWS V14.01,2013-03-12 07:00:00,
2013-03-12 00:05:00,46.8,41.3,30.20,SSE,153,0.0,0.0,81,0.00,,,0.00,VWS V14.01,2013-03-12 07:05:00,
2013-03-12 00:10:00,46.9,41.4,30.20,SSE,153,0.0,0.0,81,0.00,,,0.00,VWS V14.01,2013-03-12 07:10:00,
2013-03-12 00:15:00,47.0,41.2,30.19,SSE,153,0.0,0.0,80,0.00,,,0.00,VWS V14.01,2013-03-12 07:15:00,
2013-03-12 00:19:00,47.0,41.5,30.20,SSE,153,0.0,0.0,81,0.00,,,0.00,VWS V14.01,2013-03-12 07:19:00,
2013-03-12 00:24:00,46.9,41.1,30.19,SSE,153,0.0,0.0,80,0.00,,,0.00,VWS V14.01,2013-03-12 07:24:00,
2013-03-12 00:29:00,46.7,41.2,30.19,SSE,153,0.0,0.0,81,0.00,,,0.00,VWS V14.01,2013-03-12 07:29:00,
2013-03-12 00:30:00,46.7,40.9,30.19,SSE,153,0.0,0.0,80,0.00,,,0.00,VWS V14.01,2013-03-12 07:30:00,
2013-03-12 00:34:00,46.4,40.9,30.19,SSE,153,0.0,0.0,81,0.00,,,0.00,VWS V14.01,2013-03-12 07:34:00,
2013-03-12 00:39:00,46.2,40.7,30.19,SSE,153,0.0,0.0,81,0.00,,,0.00,VWS V14.01,2013-03-12 07:39:00,
2013-03-12 00:44:00,45.9,40.4,30.19,SSE,153,0.0,0.0,81,0.00,,,0.00,VWS V14.01,2013-03-12 07:44:00,
2013-03-12 00:49:00,45.6,40.4,30.19,SSE,153,0.0,0.0,82,0.00,,,0.00,VWS V14.01,2013-03-12 07:49:00,
2013-03-12 00:54:00,45.4,40.5,30.19,SSE,153,0.0,0.0,83,0.00,,,0.00,VWS V14.01,2013-03-12 07:54:00,
2013-03-12 00:59:00,45.1,39.9,30.19,SSE,153,0.0,0.0,82,0.00,,,0.00,VWS V14.01,2013-03-12 07:59:00,
2013-03-12 01:00:00,45.2,40.0,30.19,SSE,153,0.0,0.0,82,0.00,,,0.00,VWS V14.01,2013-03-12 08:00:00,
2013-03-12 01:04:00,44.8,40.0,30.19,SSE,153,0.0,0.0,83,0.00,,,0.00,VWS V14.01,2013-03-12 08:04:00,
2013-03-12 01:09:00,44.6,40.1,30.20,SSE,153,0.0,0.0,84,0.00,,,0.00,VWS V14.01,2013-03-12 08:09:00,
2013-03-12 01:14:00,44.4,39.9,30.20,SSE,153,0.0,0.0,84,0.00,,,0.00,VWS V14.01,2013-03-12 08:14:00,
2013-03-12 01:19:00,44.3,40.1,30.20,SSE,153,0.0,0.0,85,0.00,,,0.00,VWS V14.01,2013-03-12 08:19:00,
2013-03-12 01:24:00,44.1,39.9,30.20,SSE,153,0.0,0.0,85,0.00,,,0.00,VWS V14.01,2013-03-12 08:24:00,
2013-03-12 01:29:00,44.4,40.5,30.20,SSE,153,0.0,0.0,86,0.00,,,0.00,VWS V14.01,2013-03-12 08:29:00,
2013-03-12 01:30:00,44.3,40.4,30.20,SSE,153,0.0,0.0,86,0.00,,,0.00,VWS V14.01,2013-03-12 08:30:00,
2013-03-12 01:34:00,44.5,40.3,30.20,SSE,153,0.0,0.0,85,0.00,,,0.00,VWS V14.01,2013-03-12 08:34:00,
2013-03-12 01:39:00,44.4,40.2,30.20,SSE,153,0.0,0.0,85,0.00,,,0.00,VWS V14.01,2013-03-12 08:39:00,
2013-03-12 01:44:00,44.2,40.0,30.20,SSE,153,0.0,0.0,85,0.00,,,0.00,VWS V14.01,2013-03-12 08:44:00,
2013-03-12 01:49:00,44.0,39.8,30.21,SSE,153,0.0,0.0,85,0.00,,,0.00,VWS V14.01,2013-03-12 08:49:00,
2013-03-12 01:54:00,43.8,39.6,30.21,SSE,153,0.0,0.0,85,0.00,,,0.00,VWS V14.01,2013-03-12 08:54:00,
2013-03-12 01:59:00,43.6,39.4,30.21,SSE,153,0.0,0.0,85,0.00,,,0.00,VWS V14.01,2013-03-12 08:59:00,
2013-03-12 02:00:00,43.6,39.4,30.21,SSE,153,0.0,0.0,85,0.00,,,0.00,VWS V14.01,2013-03-12 09:00:00,
2013-03-12 02:04:00,43.5,39.3,30.21,SSE,153,0.0,0.0,85,0.00,,,0.00,VWS V14.01,2013-03-12 09:04:00,
2013-03-12 02:09:00,43.3,39.1,30.21,SSE,153,0.0,0.0,85,0.00,,,0.00,VWS V14.01,2013-03-12 09:09:00,
2013-03-12 02:14:00,43.2,39.3,30.21,SSE,153,0.0,0.0,86,0.00,,,0.00,VWS V14.01,2013-03-12 09:14:00,
2013-03-12 02:19:00,43.2,39.3,30.21,SSE,153,0.0,0.0,86,0.00,,,0.00,VWS V14.01,2013-03-12 09:19:00,
2013-03-12 02:24:00,43.1,39.2,30.21,SSE,153,0.0,0.0,86,0.00,,,0.00,VWS V14.01,2013-03-12 09:24:00,
2013-03-12 02:29:00,43.1,39.2,30.21,SSE,153,0.0,0.0,86,0.00,,,0.00,VWS V14.01,2013-03-12 09:29:00,
2013-03-12 02:30:00,43.0,39.1,30.21,SSE,153,0.0,0.0,86,0.00,,,0.00,VWS V14.01,2013-03-12 09:30:00,
2013-03-12 02:34:00,43.1,39.2,30.21,SSE,153,0.0,0.0,86,0.00,,,0.00,VWS V14.01,2013-03-12 09:34:00,
2013-03-12 02:39:00,42.9,38.7,30.20,SSE,153,0.0,0.0,85,0.00,,,0.00,VWS V14.01,2013-03-12 09:39:00,
2013-03-12 02:44:00,42.9,39.0,30.20,SSE,153,0.0,0.0,86,0.00,,,0.00,VWS V14.01,2013-03-12 09:44:00,
2013-03-12 02:49:00,42.9,39.0,30.20,SSE,153,0.0,0.0,86,0.00,,,0.00,VWS V14.01,2013-03-12 09:49:00,
2013-03-12 02:54:00,42.8,38.9,30.20,SSE,154,0.0,0.0,86,0.00,,,0.00,VWS V14.01,2013-03-12 09:54:00,
2013-03-12 02:59:00,42.6,38.7,30.20,SSE,153,0.0,0.0,86,0.00,,,0.00,VWS V14.01,2013-03-12 09:59:00,
2013-03-12 03:00:00,42.7,38.8,30.20,SSE,153,0.0,0.0,86,0.00,,,0.00,VWS V14.01,2013-03-12 10:00:00,
2013-03-12 03:04:00,42.4,38.5,30.19,SSE,153,0.0,0.0,86,0.00,,,0.00,VWS V14.01,2013-03-12 10:04:00,
2013-03-12 03:09:00,42.5,38.9,30.19,SSE,153,0.0,0.0,87,0.00,,,0.00,VWS V14.01,2013-03-12 10:09:00,
2013-03-12 03:14:00,42.5,38.9,30.19,SSE,153,0.0,0.0,87,0.00,,,0.00,VWS V14.01,2013-03-12 10:14:00,
2013-03-12 03:19:00,42.3,38.7,30.19,SSE,153,0.0,0.0,87,0.00,,,0.00,VWS V14.01,2013-03-12 10:19:00,
2013-03-12 03:24:00,42.2,38.6,30.19,SSE,153,0.0,0.0,87,0.00,,,0.00,VWS V14.01,2013-03-12 10:24:00,
2013-03-12 03:29:00,42.1,38.5,30.19,SSE,153,0.0,0.0,87,0.00,,,0.00,VWS V14.01,2013-03-12 10:29:00,
2013-03-12 03:30:00,42.2,38.6,30.19,SSE,153,0.0,0.0,87,0.00,,,0.00,VWS V14.01,2013-03-12 10:30:00,
2013-03-12 03:34:00,42.1,38.8,30.19,SSE,153,0.0,0.0,88,0.00,,,0.00,VWS V14.01,2013-03-12 10:34:00,
2013-03-12 03:39:00,42.0,38.7,30.19,SSE,153,0.0,0.0,88,0.00,,,0.00,VWS V14.01,2013-03-12 10:39:00,
2013-03-12 03:44:00,41.9,38.6,30.19,SSE,153,0.0,0.0,88,0.00,,,0.00,VWS V14.01,2013-03-12 10:44:00,
2013-03-12 03:49:00,41.8,38.5,30.18,SSE,153,0.0,0.0,88,0.00,,,0.00,VWS V14.01,2013-03-12 10:49:00,
2013-03-12 03:54:00,41.9,38.6,30.19,SSE,153,0.0,0.0,88,0.00,,,0.00,VWS V14.01,2013-03-12 10:54:00,
2013-03-12 03:59:00,41.8,38.5,30.19,SSE,153,0.0,0.0,88,0.00,,,0.00,VWS V14.01,2013-03-12 10:59:00,
2013-03-12 04:00:00,41.9,38.6,30.19,SSE,153,0.0,0.0,88,0.00,,,0.00,VWS V14.01,2013-03-12 11:00:00,
2013-03-12 04:04:00,41.8,38.5,30.19,SSE,153,0.0,0.0,88,0.00,,,0.00,VWS V14.01,2013-03-12 11:04:00,
2013-03-12 04:09:00,41.8,38.5,30.19,SSE,153,0.0,0.0,88,0.00,,,0.00,VWS V14.01,2013-03-12 11:09:00,
2013-03-12 04:14:00,42.0,38.7,30.19,SSE,153,0.0,0.0,88,0.00,,,0.00,VWS V14.01,2013-03-12 11:14:00,
2013-03-12 04:19:00,42.0,38.4,30.19,SSE,153,0.0,0.0,87,0.00,,,0.00,VWS V14.01,2013-03-12 11:19:00,
2013-03-12 04:24:00,41.9,38.3,30.19,SSE,153,0.0,0.0,87,0.00,,,0.00,VWS V14.01,2013-03-12 11:24:00,
2013-03-12 04:29:00,41.6,38.3,30.19,SSE,153,0.0,0.0,88,0.00,,,0.00,VWS V14.01,2013-03-12 11:29:00,
2013-03-12 04:30:00,41.7,38.4,30.19,SSE,153,0.0,0.0,88,0.00,,,0.00,VWS V14.01,2013-03-12 11:30:00,
2013-03-12 04:34:00,41.6,38.3,30.20,SSE,153,0.0,0.0,88,0.00,,,0.00,VWS V14.01,2013-03-12 11:34:00,
2013-03-12 04:39:00,41.3,38.0,30.19,SSE,153,0.0,0.0,88,0.00,,,0.00,VWS V14.01,2013-03-12 11:39:00,
2013-03-12 04:44:00,41.2,37.9,30.20,SSE,153,0.0,0.0,88,0.00,,,0.00,VWS V14.01,2013-03-12 11:44:00,
2013-03-12 04:49:00,40.9,37.6,30.20,SSE,153,0.0,0.0,88,0.00,,,0.00,VWS V14.01,2013-03-12 11:49:00,
2013-03-12 04:54:00,40.8,37.8,30.20,SSE,153,0.0,0.0,89,0.00,,,0.00,VWS V14.01,2013-03-12 11:54:00,
2013-03-12 04:59:00,40.7,38.0,30.20,SSE,153,0.0,0.0,90,0.00,,,0.00,VWS V14.01,2013-03-12 11:59:00,
2013-03-12 05:00:00,40.8,38.1,30.20,SSE,153,0.0,0.0,90,0.00,,,0.00,VWS V14.01,2013-03-12 12:00:00,
2013-03-12 05:04:00,40.6,37.9,30.20,SSE,153,0.0,0.0,90,0.00,,,0.00,VWS V14.01,2013-03-12 12:04:00,
2013-03-12 05:09:00,40.6,37.9,30.20,SSE,153,0.0,0.0,90,0.00,,,0.00,VWS V14.01,2013-03-12 12:09:00,
2013-03-12 05:14:00,40.5,37.5,30.20,SSE,153,0.0,0.0,89,0.00,,,0.00,VWS V14.01,2013-03-12 12:14:00,
2013-03-12 05:19:00,40.4,37.7,30.20,SSE,153,0.0,0.0,90,0.00,,,0.00,VWS V14.01,2013-03-12 12:19:00,
2013-03-12 05:24:00,40.2,37.5,30.20,SSE,153,0.0,0.0,90,0.00,,,0.00,VWS V14.01,2013-03-12 12:24:00,
2013-03-12 05:29:00,40.2,37.5,30.20,SSE,153,0.0,0.0,90,0.00,,,0.00,VWS V14.01,2013-03-12 12:29:00,
2013-03-12 05:30:00,40.2,37.5,30.20,SSE,153,0.0,0.0,90,0.00,,,0.00,VWS V14.01,2013-03-12 12:30:00,
2013-03-12 05:34:00,40.1,37.4,30.20,SSE,153,0.0,0.0,90,0.00,,,0.00,VWS V14.01,2013-03-12 12:34:00,
2013-03-12 05:39:00,39.9,37.2,30.20,SSE,153,0.0,0.0,90,0.00,,,0.00,VWS V14.01,2013-03-12 12:39:00,
2013-03-12 05:44:00,39.8,37.4,30.20,SSE,153,0.0,0.0,91,0.00,,,0.00,VWS V14.01,2013-03-12 12:44:00,
2013-03-12 05:49:00,39.9,37.5,30.20,SSE,153,0.0,0.0,91,0.00,,,0.00,VWS V14.01,2013-03-12 12:49:00,
2013-03-12 05:54:00,39.9,37.5,30.20,SSE,153,0.0,0.0,91,0.00,,,0.00,VWS V14.01,2013-03-12 12:54:00,
2013-03-12 05:59:00,39.8,37.4,30.20,SSE,153,0.0,0.0,91,0.00,,,0.00,VWS V14.01,2013-03-12 12:59:00,
2013-03-12 06:00:00,39.9,37.5,30.20,SSE,153,0.0,0.0,91,0.00,,,0.00,VWS V14.01,2013-03-12 13:00:00,
2013-03-12 06:04:00,39.7,37.3,30.20,SSE,153,0.0,0.0,91,0.00,,,0.00,VWS V14.01,2013-03-12 13:04:00,
2013-03-12 06:09:00,39.9,37.8,30.20,SSE,153,0.0,0.0,92,0.00,,,0.00,VWS V14.01,2013-03-12 13:09:00,
2013-03-12 06:14:00,39.9,37.5,30.20,SSE,153,0.0,0.0,91,0.00,,,0.00,VWS V14.01,2013-03-12 13:14:00,
2013-03-12 06:19:00,39.9,37.5,30.20,SSE,153,0.0,0.0,91,0.00,,,0.00,VWS V14.01,2013-03-12 13:19:00,
2013-03-12 06:24:00,39.7,37.3,30.20,SSE,153,0.0,0.0,91,0.00,,,0.00,VWS V14.01,2013-03-12 13:24:00,
2013-03-12 06:29:00,39.7,37.3,30.20,SSE,153,0.0,0.0,91,0.00,,,0.00,VWS V14.01,2013-03-12 13:29:00,
2013-03-12 06:30:00,39.7,37.3,30.20,SSE,153,0.0,0.0,91,0.00,,,0.00,VWS V14.01,2013-03-12 13:30:00,
2013-03-12 06:34:00,39.7,37.3,30.20,SSE,153,0.0,0.0,91,0.00,,,0.00,VWS V14.01,2013-03-12 13:34:00,
2013-03-12 06:39:00,39.6,37.2,30.20,SSE,153,0.0,0.0,91,0.00,,,0.00,VWS V14.01,2013-03-12 13:39:00,
2013-03-12 06:44:00,39.4,37.0,30.20,SSE,153,0.0,0.0,91,0.00,,,0.00,VWS V14.01,2013-03-12 13:44:00,
2013-03-12 06:49:00,39.3,36.9,30.20,SSE,153,0.0,0.0,91,0.00,,,0.00,VWS V14.01,2013-03-12 13:49:00,
2013-03-12 06:54:00,39.1,36.7,30.21,SSE,153,0.0,0.0,91,0.00,,,0.00,VWS V14.01,2013-03-12 13:54:00,
2013-03-12 06:59:00,38.9,36.5,30.21,SSE,153,0.0,0.0,91,0.00,,,0.00,VWS V14.01,2013-03-12 13:59:00,
2013-03-12 07:00:00,38.9,36.5,30.21,SSE,153,0.0,0.0,91,0.00,,,0.00,VWS V14.01,2013-03-12 14:00:00,
2013-03-12 07:04:00,38.9,36.8,30.21,SSE,153,0.0,0.0,92,0.00,,,0.00,VWS V14.01,2013-03-12 14:04:00,
2013-03-12 07:09:00,38.9,36.8,30.21,SSE,153,0.0,0.0,92,0.00,,,0.00,VWS V14.01,2013-03-12 14:09:00,
2013-03-12 07:14:00,39.1,37.2,30.21,SSE,153,0.0,0.0,93,0.00,,,0.00,VWS V14.01,2013-03-12 14:14:00,
2013-03-12 07:19:00,39.1,37.0,30.21,SSE,153,0.0,0.0,92,0.00,,,0.00,VWS V14.01,2013-03-12 14:19:00,
2013-03-12 07:24:00,39.0,36.9,30.21,SSE,153,0.0,0.0,92,0.00,,,0.00,VWS V14.01,2013-03-12 14:24:00,
2013-03-12 07:29:00,38.7,36.3,30.21,SSE,153,0.0,0.0,91,0.00,,,0.00,VWS V14.01,2013-03-12 14:29:00,
2013-03-12 07:30:00,38.8,36.4,30.21,SSE,153,0.0,0.0,91,0.00,,,0.00,VWS V14.01,2013-03-12 14:30:00,
2013-03-12 07:34:00,38.6,36.5,30.21,SSE,153,0.0,0.0,92,0.00,,,0.00,VWS V14.01,2013-03-12 14:34:00,
2013-03-12 07:39:00,38.5,36.4,30.21,SSE,153,0.0,0.0,92,0.00,,,0.00,VWS V14.01,2013-03-12 14:39:00,
2013-03-12 07:44:00,38.5,36.7,30.21,SSE,153,0.0,0.0,93,0.00,,,0.00,VWS V14.01,2013-03-12 14:44:00,
2013-03-12 07:49:00,38.5,36.7,30.22,SSE,153,0.0,0.0,93,0.00,,,0.00,VWS V14.01,2013-03-12 14:49:00,
2013-03-12 07:54:00,38.5,36.4,30.22,SSE,153,0.0,0.0,92,0.00,,,0.00,VWS V14.01,2013-03-12 14:54:00,
2013-03-12 07:59:00,38.8,37.2,30.22,SSE,153,0.0,0.0,94,0.00,,,0.00,VWS V14.01,2013-03-12 14:59:00,
2013-03-12 08:00:00,38.7,36.8,30.22,SSE,153,0.0,0.0,93,0.00,,,0.00,VWS V14.01,2013-03-12 15:00:00,
2013-03-12 08:04:00,39.2,37.6,30.22,SSE,153,0.0,0.0,94,0.00,,,0.00,VWS V14.01,2013-03-12 15:04:00,
2013-03-12 08:09:00,39.6,38.0,30.22,SSE,153,0.0,0.0,94,0.00,,,0.00,VWS V14.01,2013-03-12 15:09:00,
2013-03-12 08:14:00,40.0,38.4,30.22,SSE,153,0.0,0.0,94,0.00,,,0.00,VWS V14.01,2013-03-12 15:14:00,
2013-03-12 08:19:00,40.4,38.5,30.22,SSE,153,0.0,0.0,93,0.00,,,0.00,VWS V14.01,2013-03-12 15:19:00,
2013-03-12 08:24:00,40.8,38.9,30.22,SSE,153,0.0,0.0,93,0.00,,,0.00,VWS V14.01,2013-03-12 15:24:00,
2013-03-12 08:29:00,41.2,39.3,30.22,SSE,153,0.0,0.0,93,0.00,,,0.00,VWS V14.01,2013-03-12 15:29:00,
2013-03-12 08:30:00,41.1,39.2,30.22,SSE,153,0.0,0.0,93,0.00,,,0.00,VWS V14.01,2013-03-12 15:30:00,
2013-03-12 08:34:00,41.4,39.5,30.23,SSE,153,0.0,0.0,93,0.00,,,0.00,VWS V14.01,2013-03-12 15:34:00,
2013-03-12 08:39:00,41.8,39.9,30.23,SSE,153,0.0,0.0,93,0.00,,,0.00,VWS V14.01,2013-03-12 15:39:00,
2013-03-12 08:44:00,42.2,40.3,30.23,SSE,153,0.0,0.0,93,0.00,,,0.00,VWS V14.01,2013-03-12 15:44:00,
2013-03-12 08:49:00,43.2,41.0,30.23,SSE,153,0.0,0.0,92,0.00,,,0.00,VWS V14.01,2013-03-12 15:49:00,
2013-03-12 08:54:00,43.9,41.5,30.23,SSE,153,0.0,0.0,91,0.00,,,0.00,VWS V14.01,2013-03-12 15:54:00,
2013-03-12 08:59:00,44.8,41.8,30.23,SSE,153,0.0,0.0,89,0.00,,,0.00,VWS V14.01,2013-03-12 15:59:00,
2013-03-12 09:00:00,44.6,41.6,30.23,SSE,153,0.0,0.0,89,0.00,,,0.00,VWS V14.01,2013-03-12 16:00:00,
2013-03-12 09:04:00,45.5,41.9,30.23,SSE,153,0.0,0.0,87,0.00,,,0.00,VWS V14.01,2013-03-12 16:04:00,
2013-03-12 09:09:00,46.1,41.8,30.23,SSE,156,0.0,0.0,85,0.00,,,0.00,VWS V14.01,2013-03-12 16:09:00,
2013-03-12 09:14:00,46.8,42.2,30.23,SSE,159,0.0,0.0,84,0.00,,,0.00,VWS V14.01,2013-03-12 16:14:00,
2013-03-12 09:19:00,47.7,42.8,30.24,SSE,159,0.0,0.0,83,0.00,,,0.00,VWS V14.01,2013-03-12 16:19:00,
2013-03-12 09:24:00,49.2,43.6,30.24,WSW,257,0.0,1.0,81,0.00,,,0.00,VWS V14.01,2013-03-12 16:24:00,
2013-03-12 09:29:00,50.4,44.5,30.24,West,277,0.0,1.0,80,0.00,,,0.00,VWS V14.01,2013-03-12 16:29:00,
2013-03-12 09:30:00,50.2,44.0,30.24,West,273,0.0,1.0,79,0.00,,,0.00,VWS V14.01,2013-03-12 16:30:00,
2013-03-12 09:34:00,51.4,45.1,30.24,West,281,0.0,1.0,79,0.00,,,0.00,VWS V14.01,2013-03-12 16:34:00,
2013-03-12 09:39:00,52.5,45.5,30.24,NNE,33,0.0,1.0,77,0.00,,,0.00,VWS V14.01,2013-03-12 16:39:00,
2013-03-12 09:44:00,53.3,45.6,30.24,NW,309,0.0,1.0,75,0.00,,,0.00,VWS V14.01,2013-03-12 16:44:00,
2013-03-12 09:49:00,54.2,45.8,30.24,North,11,0.0,1.0,73,0.00,,,0.00,VWS V14.01,2013-03-12 16:49:00,
2013-03-12 09:54:00,54.5,45.7,30.24,NW,320,0.0,1.0,72,0.00,,,0.00,VWS V14.01,2013-03-12 16:54:00,
2013-03-12 09:59:00,55.3,46.4,30.24,West,280,0.0,1.0,72,0.00,,,0.00,VWS V14.01,2013-03-12 16:59:00,
2013-03-12 10:00:00,55.1,45.9,30.24,West,280,0.0,1.0,71,0.00,,,0.00,VWS V14.01,2013-03-12 17:00:00,
2013-03-12 10:04:00,56.3,45.9,30.24,West,266,0.0,1.0,68,0.00,,,0.00,VWS V14.01,2013-03-12 17:04:00,
2013-03-12 10:09:00,57.0,46.2,30.24,WNW,293,1.0,2.0,67,0.00,,,0.00,VWS V14.01,2013-03-12 17:09:00,
2013-03-12 10:14:00,57.6,45.9,30.25,West,267,0.0,2.0,65,0.00,,,0.00,VWS V14.01,2013-03-12 17:14:00,
2013-03-12 10:30:00,59.2,47.0,30.24,West,270,0.0,2.0,64,0.00,,,0.00,VWS V14.01,2013-03-12 17:30:00,
2013-03-12 11:00:00,63.0,48.9,30.23,WSW,248,0.0,3.0,60,0.00,,,0.00,VWS V14.01,2013-03-12 18:00:00,
2013-03-12 11:30:00,65.7,51.0,30.23,NW,315,1.0,3.0,59,0.00,,,0.00,VWS V14.01,2013-03-12 18:30:00,
2013-03-12 12:00:00,67.7,48.9,30.23,NE,45,1.0,4.0,51,0.00,,,0.00,VWS V14.01,2013-03-12 19:00:00,
2013-03-12 12:30:00,70.5,48.8,30.21,ENE,68,1.0,2.0,46,0.00,,,0.00,VWS V14.01,2013-03-12 19:30:00,
2013-03-12 13:00:00,71.3,50.6,30.21,WNW,292,1.0,4.0,48,0.00,,,0.00,VWS V14.01,2013-03-12 20:00:00,
2013-03-12 13:30:00,73.2,51.2,30.20,NW,315,1.0,4.0,46,0.00,,,0.00,VWS V14.01,2013-03-12 20:30:00,
2013-03-12 14:00:00,73.9,50.6,30.19,NW,315,1.0,4.0,44,0.00,,,0.00,VWS V14.01,2013-03-12 21:00:00,
2013-03-12 14:30:00,74.1,47.6,30.17,ENE,68,1.0,6.0,39,0.00,,,0.00,VWS V14.01,2013-03-12 21:30:00,
2013-03-12 15:00:00,75.4,48.8,30.16,NE,45,1.0,5.0,39,0.00,,,0.00,VWS V14.01,2013-03-12 22:00:00,
2013-03-12 15:20:00,74.1,47.6,30.17,ENE,68,1.0,6.0,39,0.00,,,0.00,VWS V14.01,2013-03-12 22:20:00,
2013-03-12 15:28:00,75.4,48.8,30.16,NE,45,1.0,5.0,39,0.00,,,0.00,VWS V14.01,2013-03-12 22:28:00,
2013-03-12 15:30:00,75.9,48.5,30.15,WNW,298,2.0,2.0,38,0.00,,,0.00,VWS V14.01,2013-03-12 22:30:00,
2013-03-12 15:33:00,76.4,48.9,30.15,NNW,341,1.0,3.0,38,0.00,,,0.00,VWS V14.01,2013-03-12 22:33:00,
2013-03-12 15:38:00,76.7,48.5,30.14,West,276,0.0,3.0,37,0.00,,,0.00,VWS V14.01,2013-03-12 22:38:00,
2013-03-12 15:43:00,76.9,47.9,30.14,SSE,155,1.0,3.0,36,0.00,,,0.00,VWS V14.01,2013-03-12 22:43:00,
2013-03-12 15:48:00,77.0,48.8,30.14,ENE,75,5.0,5.0,37,0.00,,,0.00,VWS V14.01,2013-03-12 22:48:00,
2013-03-12 15:53:00,76.0,47.9,30.14,West,279,0.0,5.0,37,0.00,,,0.00,VWS V14.01,2013-03-12 22:53:00,
2013-03-12 15:58:00,76.2,48.8,30.14,WNW,285,1.0,1.0,38,0.00,,,0.00,VWS V14.01,2013-03-12 22:58:00,
2013-03-12 16:03:00,76.4,48.2,30.14,NE,55,1.0,3.0,37,0.00,,,0.00,VWS V14.01,2013-03-12 23:03:00,
2013-03-12 16:08:00,76.3,48.1,30.14,NNE,30,1.0,4.0,37,0.00,,,0.00,VWS V14.01,2013-03-12 23:08:00,
2013-03-12 16:13:00,76.6,48.4,30.14,WNW,288,0.0,4.0,37,0.00,,,0.00,VWS V14.01,2013-03-12 23:13:00,
2013-03-12 16:18:00,77.2,48.2,30.14,NNE,26,1.0,4.0,36,0.00,,,0.00,VWS V14.01,2013-03-12 23:18:00,
2013-03-12 16:23:00,77.1,48.1,30.14,WNW,287,0.0,4.0,36,0.00,,,0.00,VWS V14.01,2013-03-12 23:23:00,
2013-03-12 16:28:00,77.5,49.2,30.14,NW,316,1.0,1.0,37,0.00,,,0.00,VWS V14.01,2013-03-12 23:28:00,
2013-03-12 16:33:00,77.8,49.5,30.14,NW,304,1.0,4.0,37,0.00,,,0.00,VWS V14.01,2013-03-12 23:33:00,
2013-03-12 16:38:00,77.9,49.6,30.14,NW,326,0.0,4.0,37,0.00,,,0.00,VWS V14.01,2013-03-12 23:38:00,
2013-03-12 16:43:00,77.8,49.5,30.14,West,264,0.0,4.0,37,0.00,,,0.00,VWS V14.01,2013-03-12 23:43:00,
2013-03-12 16:48:00,77.6,48.6,30.14,WNW,302,0.0,4.0,36,0.00,,,0.00,VWS V14.01,2013-03-12 23:48:00,
2013-03-12 16:53:00,77.8,48.0,30.14,West,263,1.0,4.0,35,0.00,,,0.00,VWS V14.01,2013-03-12 23:53:00,
2013-03-12 16:58:00,77.7,47.9,30.14,NE,56,0.0,2.0,35,0.00,,,0.00,VWS V14.01,2013-03-12 23:58:00,
2013-03-12 17:03:00,78.0,47.4,30.14,WNW,293,0.0,2.0,34,0.00,,,0.00,VWS V14.01,2013-03-13 00:03:00,
2013-03-12 17:08:00,78.3,47.7,30.14,NNW,339,1.0,2.0,34,0.00,,,0.00,VWS V14.01,2013-03-13 00:08:00,
2013-03-12 17:13:00,77.6,47.0,30.14,East,81,1.0,3.0,34,0.00,,,0.00,VWS V14.01,2013-03-13 00:13:00,
2013-03-12 17:18:00,77.3,47.5,30.14,NNW,330,1.0,3.0,35,0.00,,,0.00,VWS V14.01,2013-03-13 00:18:00,
2013-03-12 17:23:00,77.4,47.6,30.14,NE,46,0.0,3.0,35,0.00,,,0.00,VWS V14.01,2013-03-13 00:23:00,
2013-03-12 17:28:00,77.3,47.5,30.14,NNW,342,0.0,0.0,35,0.00,,,0.00,VWS V14.01,2013-03-13 00:28:00,
2013-03-12 17:33:00,77.5,47.7,30.14,NNE,23,0.0,2.0,35,0.00,,,0.00,VWS V14.01,2013-03-13 00:33:00,
2013-03-12 17:38:00,77.4,47.6,30.14,NNE,32,0.0,2.0,35,0.00,,,0.00,VWS V14.01,2013-03-13 00:38:00,
2013-03-12 17:43:00,77.5,47.7,30.14,WNW,302,0.0,2.0,35,0.00,,,0.00,VWS V14.01,2013-03-13 00:43:00,
2013-03-12 17:48:00,77.4,47.6,30.14,NE,49,1.0,2.0,35,0.00,,,0.00,VWS V14.01,2013-03-13 00:48:00,
2013-03-12 17:53:00,76.2,48.0,30.14,West,260,1.0,3.0,37,0.00,,,0.00,VWS V14.01,2013-03-13 00:53:00,
2013-03-12 17:58:00,76.0,47.9,30.14,WNW,299,0.0,1.0,37,0.00,,,0.00,VWS V14.01,2013-03-13 00:58:00,
2013-03-12 18:03:00,75.9,48.5,30.14,NE,53,0.0,2.0,38,0.00,,,0.00,VWS V14.01,2013-03-13 01:03:00,
2013-03-12 18:08:00,75.9,48.5,30.14,ENE,58,0.0,2.0,38,0.00,,,0.00,VWS V14.01,2013-03-13 01:08:00,
2013-03-12 18:13:00,76.0,48.6,30.14,NNE,20,0.0,3.0,38,0.00,,,0.00,VWS V14.01,2013-03-13 01:13:00,
2013-03-12 18:18:00,75.4,48.0,30.15,WSW,253,1.0,3.0,38,0.00,,,0.00,VWS V14.01,2013-03-13 01:18:00,
2013-03-12 18:23:00,74.7,47.4,30.15,WNW,290,1.0,3.0,38,0.00,,,0.00,VWS V14.01,2013-03-13 01:23:00,
2013-03-12 18:28:00,74.1,47.6,30.15,West,271,1.0,2.0,39,0.00,,,0.00,VWS V14.01,2013-03-13 01:28:00,
2013-03-12 18:33:00,73.5,47.0,30.15,NW,315,0.0,2.0,39,0.00,,,0.00,VWS V14.01,2013-03-13 01:33:00,
2013-03-12 18:38:00,72.8,47.8,30.15,West,280,0.0,2.0,41,0.00,,,0.00,VWS V14.01,2013-03-13 01:38:00,
2013-03-12 18:43:00,72.2,47.9,30.15,West,278,0.0,2.0,42,0.00,,,0.00,VWS V14.01,2013-03-13 01:43:00,
2013-03-12 18:48:00,71.6,48.6,30.15,WNW,302,1.0,2.0,44,0.00,,,0.00,VWS V14.01,2013-03-13 01:48:00,
2013-03-12 18:53:00,71.0,48.6,30.15,WNW,302,0.0,2.0,45,0.00,,,0.00,VWS V14.01,2013-03-13 01:53:00,
2013-03-12 18:58:00,70.2,48.5,30.15,WNW,302,0.0,0.0,46,0.00,,,0.00,VWS V14.01,2013-03-13 01:58:00,
2013-03-12 19:03:00,69.5,49.0,30.15,WNW,302,0.0,0.0,48,0.00,,,0.00,VWS V14.01,2013-03-13 02:03:00,
2013-03-12 19:08:00,68.7,48.8,30.15,WNW,302,0.0,0.0,49,0.00,,,0.00,VWS V14.01,2013-03-13 02:08:00,
2013-03-12 19:13:00,67.8,49.5,30.15,WNW,302,0.0,0.0,52,0.00,,,0.00,VWS V14.01,2013-03-13 02:13:00,
2013-03-12 19:18:00,67.1,49.4,30.15,WNW,302,0.0,0.0,53,0.00,,,0.00,VWS V14.01,2013-03-13 02:18:00,
2013-03-12 19:23:00,66.4,49.3,30.16,WNW,302,0.0,0.0,54,0.00,,,0.00,VWS V14.01,2013-03-13 02:23:00,
2013-03-12 19:28:00,65.7,49.6,30.16,WNW,302,0.0,0.0,56,0.00,,,0.00,VWS V14.01,2013-03-13 02:28:00,
2013-03-12 19:33:00,65.1,49.5,30.16,WNW,302,0.0,0.0,57,0.00,,,0.00,VWS V14.01,2013-03-13 02:33:00,
2013-03-12 19:38:00,64.5,49.9,30.16,WNW,302,0.0,0.0,59,0.00,,,0.00,VWS V14.01,2013-03-13 02:38:00,
2013-03-12 19:43:00,63.8,49.7,30.16,WNW,302,0.0,0.0,60,0.00,,,0.00,VWS V14.01,2013-03-13 02:43:00,
2013-03-12 19:48:00,63.1,49.5,30.16,WNW,302,0.0,0.0,61,0.00,,,0.00,VWS V14.01,2013-03-13 02:48:00,
2013-03-12 19:53:00,62.6,49.0,30.16,WNW,302,0.0,0.0,61,0.00,,,0.00,VWS V14.01,2013-03-13 02:53:00,
2013-03-12 19:58:00,62.3,48.7,30.16,WNW,302,0.0,0.0,61,0.00,,,0.00,VWS V14.01,2013-03-13 02:58:00,
2013-03-12 20:04:00,61.6,48.9,30.16,WNW,302,0.0,0.0,63,0.00,,,0.00,VWS V14.01,2013-03-13 03:04:00,
2013-03-12 20:08:00,61.0,48.8,30.17,WNW,302,0.0,0.0,64,0.00,,,0.00,VWS V14.01,2013-03-13 03:08:00,
2013-03-12 20:13:00,60.5,48.3,30.17,WNW,302,0.0,0.0,64,0.00,,,0.00,VWS V14.01,2013-03-13 03:13:00,
2013-03-12 20:18:00,60.1,47.9,30.17,WNW,302,0.0,0.0,64,0.00,,,0.00,VWS V14.01,2013-03-13 03:18:00,
2013-03-12 20:23:00,59.7,48.3,30.17,WNW,302,0.0,0.0,66,0.00,,,0.00,VWS V14.01,2013-03-13 03:23:00,
2013-03-12 20:28:00,59.3,48.0,30.17,WNW,302,0.0,0.0,66,0.00,,,0.00,VWS V14.01,2013-03-13 03:28:00,
2013-03-12 20:33:00,59.0,48.1,30.18,WNW,302,0.0,0.0,67,0.00,,,0.00,VWS V14.01,2013-03-13 03:33:00,
2013-03-12 20:38:00,58.8,48.3,30.18,WNW,302,0.0,0.0,68,0.00,,,0.00,VWS V14.01,2013-03-13 03:38:00,
2013-03-12 20:43:00,58.6,48.1,30.18,WNW,302,0.0,0.0,68,0.00,,,0.00,VWS V14.01,2013-03-13 03:43:00,
2013-03-12 20:48:00,58.4,48.3,30.18,WNW,302,0.0,0.0,69,0.00,,,0.00,VWS V14.01,2013-03-13 03:48:00,
2013-03-12 20:53:00,58.0,47.5,30.18,WNW,302,0.0,0.0,68,0.00,,,0.00,VWS V14.01,2013-03-13 03:53:00,
2013-03-12 20:58:00,57.5,47.4,30.18,WNW,302,0.0,0.0,69,0.00,,,0.00,VWS V14.01,2013-03-13 03:58:00,
2013-03-12 21:00:00,57.3,47.2,30.18,WNW,302,0.0,0.0,69,0.00,,,0.00,VWS V14.01,2013-03-13 04:00:00,
2013-03-12 21:05:00,57.0,47.3,30.18,West,259,0.0,1.0,70,0.00,,,0.00,VWS V14.01,2013-03-13 04:05:00,
2013-03-12 21:10:00,56.8,47.1,30.18,West,259,0.0,1.0,70,0.00,,,0.00,VWS V14.01,2013-03-13 04:10:00,
2013-03-12 21:15:00,56.7,47.0,30.18,ESE,122,0.0,1.0,70,0.00,,,0.00,VWS V14.01,2013-03-13 04:15:00,
2013-03-12 21:20:00,56.4,47.1,30.19,ESE,122,0.0,1.0,71,0.00,,,0.00,VWS V14.01,2013-03-13 04:20:00,
2013-03-12 21:25:00,56.1,46.8,30.19,SE,124,0.0,1.0,71,0.00,,,0.00,VWS V14.01,2013-03-13 04:25:00,
2013-03-12 21:30:00,55.9,47.0,30.18,ESE,122,0.0,0.0,72,0.00,,,0.00,VWS V14.01,2013-03-13 04:30:00,
2013-03-12 21:35:00,55.8,46.9,30.19,SSW,200,0.0,0.0,72,0.00,,,0.00,VWS V14.01,2013-03-13 04:35:00,
2013-03-12 21:40:00,55.5,46.6,30.19,SSW,200,0.0,0.0,72,0.00,,,0.00,VWS V14.01,2013-03-13 04:40:00,
2013-03-12 21:45:00,55.3,46.4,30.18,SSW,196,0.0,0.0,72,0.00,,,0.00,VWS V14.01,2013-03-13 04:45:00,
2013-03-12 21:50:00,55.1,46.6,30.18,SE,126,0.0,1.0,73,0.00,,,0.00,VWS V14.01,2013-03-13 04:50:00,
2013-03-12 21:55:00,54.9,46.4,30.19,ESE,117,0.0,1.0,73,0.00,,,0.00,VWS V14.01,2013-03-13 04:55:00,
2013-03-12 22:00:00,54.8,46.3,30.19,ESE,117,0.0,0.0,73,0.00,,,0.00,VWS V14.01,2013-03-13 05:00:00,
2013-03-12 22:05:00,54.6,46.5,30.19,ESE,117,0.0,0.0,74,0.00,,,0.00,VWS V14.01,2013-03-13 05:05:00,
2013-03-12 22:10:00,54.4,46.3,30.19,ESE,117,0.0,0.0,74,0.00,,,0.00,VWS V14.01,2013-03-13 05:10:00,
2013-03-12 22:15:00,54.2,46.5,30.19,ESE,117,0.0,0.0,75,0.00,,,0.00,VWS V14.01,2013-03-13 05:15:00,
2013-03-12 22:20:00,54.2,46.8,30.19,ESE,117,0.0,0.0,76,0.00,,,0.00,VWS V14.01,2013-03-13 05:20:00,
2013-03-12 22:25:00,53.9,46.2,30.19,ESE,117,0.0,0.0,75,0.00,,,0.00,VWS V14.01,2013-03-13 05:25:00,
2013-03-12 22:30:00,53.6,46.2,30.19,ESE,118,0.0,0.0,76,0.00,,,0.00,VWS V14.01,2013-03-13 05:30:00,
2013-03-12 22:35:00,53.1,46.1,30.19,ESE,117,0.0,0.0,77,0.00,,,0.00,VWS V14.01,2013-03-13 05:35:00,
2013-03-12 22:40:00,52.8,46.1,30.19,ESE,117,0.0,0.0,78,0.00,,,0.00,VWS V14.01,2013-03-13 05:40:00,
2013-03-12 22:45:00,52.4,45.8,30.20,ESE,118,0.0,0.0,78,0.00,,,0.00,VWS V14.01,2013-03-13 05:45:00,
2013-03-12 22:50:00,52.1,46.1,30.19,ESE,117,0.0,0.0,80,0.00,,,0.00,VWS V14.01,2013-03-13 05:50:00,
2013-03-12 22:55:00,51.9,45.9,30.19,ESE,117,0.0,0.0,80,0.00,,,0.00,VWS V14.01,2013-03-13 05:55:00,
2013-03-12 23:00:00,52.0,46.0,30.19,ESE,118,0.0,0.0,80,0.00,,,0.00,VWS V14.01,2013-03-13 06:00:00,
2013-03-12 23:05:00,51.9,45.9,30.19,ESE,119,0.0,0.0,80,0.00,,,0.00,VWS V14.01,2013-03-13 06:05:00,
2013-03-12 23:10:00,51.7,46.1,30.20,ESE,119,0.0,0.0,81,0.00,,,0.00,VWS V14.01,2013-03-13 06:10:00,
2013-03-12 23:15:00,51.7,46.1,30.20,ESE,118,0.0,0.0,81,0.00,,,0.00,VWS V14.01,2013-03-13 06:15:00,
2013-03-12 23:20:00,51.5,45.9,30.20,ESE,118,0.0,0.0,81,0.00,,,0.00,VWS V14.01,2013-03-13 06:20:00,
2013-03-12 23:25:00,51.4,46.1,30.20,ESE,118,0.0,0.0,82,0.00,,,0.00,VWS V14.01,2013-03-13 06:25:00,
2013-03-12 23:30:00,51.1,45.8,30.20,ESE,118,0.0,0.0,82,0.00,,,0.00,VWS V14.01,2013-03-13 06:30:00,
2013-03-12 23:35:00,50.8,45.5,30.20,ESE,118,0.0,0.0,82,0.00,,,0.00,VWS V14.01,2013-03-13 06:35:00,
2013-03-12 23:40:00,50.4,45.1,30.20,ESE,118,0.0,0.0,82,0.00,,,0.00,VWS V14.01,2013-03-13 06:40:00,
2013-03-12 23:45:00,50.1,45.8,30.20,ESE,119,0.0,0.0,85,0.00,,,0.00,VWS V14.01,2013-03-13 06:45:00,
2013-03-12 23:50:00,50.0,45.4,30.20,ESE,118,0.0,0.0,84,0.00,,,0.00,VWS V14.01,2013-03-13 06:50:00,
2013-03-12 23:55:00,49.9,45.3,30.20,ESE,118,0.0,0.0,84,0.00,,,0.00,VWS V14.01,2013-03-13 06:55:00,